Time;durP1;ratioP1;P1;durP2;ratioP2;P2;SDS_P1;SDS_P2;PMS_P1;PMS_P2;Temp;Humidity;BMP_temperature;BMP_pressure;BME280_temperature;BME280_humidity;BME280_pressure;Samples;Min_cycle;Max_cycle;Signal;HPM_P1;HPM_P2
2021/05/13 00:00:24;;;;;;;;;;;;;;;23.17;45.59;98957.28;5322233;26;34179;-91
2021/05/13 00:02:53;;;;;;;;;;;;;;;23.63;44.90;98951.94;5304259;26;33124;-92
2021/05/13 00:05:21;;;;;;;;;;;;;;;23.13;46.32;98953.22;5304131;26;34213;-90
2021/05/13 00:07:49;;;;;;;;;;;;;;;22.92;46.59;98953.44;5304011;26;34356;-91
2021/05/13 00:10:20;;;;;;;;;;;;;;;23.44;45.16;98941.44;5286019;26;33458;-92
2021/05/13 00:15:20;;;;;;;;;;;;;;;23.73;44.62;98940.41;5303949;26;34409;-92
2021/05/13 00:17:51;;;;;;;;;;;;;;;23.74;44.62;98936.78;5303650;26;34215;-90
2021/05/13 00:20:29;;;;;;;;;;;;;;;23.49;45.31;98933.84;5304264;26;32265;-92
2021/05/13 00:22:57;;;;;;;;;;;;;;;23.10;46.18;98936.72;5303905;26;33026;-91
2021/05/13 00:25:25;;;;;;;;;;;;;;;22.78;46.60;98932.66;5303669;26;33202;-90
2021/05/13 00:27:53;;;;;;;;;;;;;;;23.74;44.23;98931.44;5303613;26;33909;-91
2021/05/13 00:30:22;;;;;;;;;;;;;;;23.60;44.38;98932.78;5322237;26;32648;-91
2021/05/13 00:32:52;;;;;;;;;;;;;;;23.34;44.77;98930.88;5304523;26;33144;-90
2021/05/13 00:35:21;;;;;;;;;;;;;;;23.68;43.99;98925.75;5321920;26;34554;-91
2021/05/13 00:37:48;;;;;;;;;;;;;;;23.06;45.76;98924.72;5322011;26;34789;-91
2021/05/13 00:40:18;;;;;;;;;;;;;;;23.20;45.48;98928.72;5303944;26;32758;-91
2021/05/13 00:42:45;;;;;;;;;;;;;;;23.63;44.39;98927.19;5304173;26;33394;-90
2021/05/13 00:45:14;;;;;;;;;;;;;;;22.98;45.89;98930.75;5321994;26;34303;-90
2021/05/13 00:50:25;;;;;;;;;;;;;;;23.93;43.29;98920.69;5323789;26;32288;-91
2021/05/13 00:52:54;;;;;;;;;;;;;;;23.44;44.77;98920.19;5339981;26;33594;-91
2021/05/13 00:55:22;;;;;;;;;;;;;;;23.59;44.19;98912.53;5303919;26;32889;-91
2021/05/13 00:57:53;;;;;;;;;;;;;;;23.64;44.22;98908.44;5323038;26;34036;-91
2021/05/13 01:03:21;;;;;;;;;;;;;;;23.51;44.24;98900.81;5300744;26;34004;-91
2021/05/13 01:05:49;;;;;;;;;;;;;;;23.96;43.24;98892.94;5331745;26;32730;-92
2021/05/13 01:08:17;;;;;;;;;;;;;;;23.38;44.46;98894.22;5331684;26;34861;-92
2021/05/13 01:10:45;;;;;;;;;;;;;;;23.44;44.45;98889.13;5329180;26;33110;-93
2021/05/13 01:13:19;;;;;;;;;;;;;;;23.72;43.78;98893.53;5323778;26;34234;-92
2021/05/13 01:15:53;;;;;;;;;;;;;;;23.00;44.84;98876.50;5342196;26;33737;-90
2021/05/13 01:18:24;;;;;;;;;;;;;;;22.75;45.42;98878.03;5307064;26;32729;-91
2021/05/13 01:20:53;;;;;;;;;;;;;;;22.74;45.32;98886.97;5304953;26;31982;-91
2021/05/13 01:23:21;;;;;;;;;;;;;;;22.74;45.46;98881.66;5304618;26;32821;-91
2021/05/13 01:25:53;;;;;;;;;;;;;;;22.84;45.11;98881.59;5305058;26;33632;-90
2021/05/13 01:28:22;;;;;;;;;;;;;;;22.08;47.74;98877.22;5323244;26;34247;-92
2021/05/13 01:30:51;;;;;;;;;;;;;;;22.44;46.44;98872.13;5306118;26;33359;-92
2021/05/13 01:33:19;;;;;;;;;;;;;;;22.39;46.80;98871.72;5305008;26;33131;-92
2021/05/13 01:35:47;;;;;;;;;;;;;;;22.80;45.68;98866.97;5304350;26;33034;-92
2021/05/13 01:38:16;;;;;;;;;;;;;;;22.58;45.71;98862.88;5341146;26;34177;-91
2021/05/13 01:40:52;;;;;;;;;;;;;;;22.52;46.03;98857.19;5304379;26;32236;-91
2021/05/13 01:43:22;;;;;;;;;;;;;;;22.55;46.08;98857.84;5323929;26;33097;-91
2021/05/13 01:45:50;;;;;;;;;;;;;;;22.58;46.38;98854.94;5306332;26;33372;-90
2021/05/13 01:48:18;;;;;;;;;;;;;;;23.25;44.79;98841.44;5305735;26;32877;-92
2021/05/13 01:50:47;;;;;;;;;;;;;;;22.56;46.25;98839.12;5324593;26;32486;-90
2021/05/13 01:53:14;;;;;;;;;;;;;;;22.75;45.97;98832.91;5323867;26;34753;-90
2021/05/13 01:55:43;;;;;;;;;;;;;;;22.38;46.78;98838.22;5322680;26;34917;-91
2021/05/13 01:58:11;;;;;;;;;;;;;;;22.91;45.32;98834.91;5304254;26;33552;-92
2021/05/13 02:00:43;;;;;;;;;;;;;;;22.91;45.66;98834.06;5304537;26;32020;-90
2021/05/13 02:03:11;;;;;;;;;;;;;;;22.80;45.92;98827.97;5286626;26;32968;-91
2021/05/13 02:05:40;;;;;;;;;;;;;;;22.06;47.14;98834.94;5304487;26;33850;-92
2021/05/13 02:08:08;;;;;;;;;;;;;;;22.29;46.67;98830.13;5304170;26;32758;-92
2021/05/13 02:10:37;;;;;;;;;;;;;;;22.44;45.71;98833.19;5305975;26;32032;-90
2021/05/13 02:13:05;;;;;;;;;;;;;;;21.96;47.15;98834.94;5305209;26;32929;-93
2021/05/13 02:15:33;;;;;;;;;;;;;;;22.48;45.43;98831.06;5323791;26;33862;-92
2021/05/13 02:18:01;;;;;;;;;;;;;;;21.84;47.03;98833.44;5323572;26;33551;-91
2021/05/13 02:20:30;;;;;;;;;;;;;;;21.95;46.79;98828.00;5305470;26;32178;-92
2021/05/13 02:22:58;;;;;;;;;;;;;;;22.49;45.21;98828.25;5304561;26;34279;-90
2021/05/13 02:25:28;;;;;;;;;;;;;;;21.92;46.57;98817.66;5304356;26;33497;-89
2021/05/13 02:27:57;;;;;;;;;;;;;;;21.47;47.46;98823.53;5304727;26;32499;-91
2021/05/13 02:30:25;;;;;;;;;;;;;;;20.61;49.55;98822.25;5304691;26;32340;-91
2021/05/13 02:33:08;;;;;;;;;;;;;;;21.13;48.49;98822.13;5308862;26;33251;-90
2021/05/13 02:35:36;;;;;;;;;;;;;;;22.08;46.01;98827.66;5322597;26;34021;-90
2021/05/13 02:38:05;;;;;;;;;;;;;;;21.51;46.65;98820.47;5322391;26;34177;-92
2021/05/13 02:40:32;;;;;;;;;;;;;;;20.66;49.21;98829.78;5303734;26;32305;-91
2021/05/13 02:43:03;;;;;;;;;;;;;;;22.08;45.52;98829.50;5322568;26;33984;-90
2021/05/13 02:45:32;;;;;;;;;;;;;;;22.51;44.43;98828.13;5322631;26;34199;-91
2021/05/13 02:48:00;;;;;;;;;;;;;;;22.04;45.68;98826.28;5304013;26;32706;-90
2021/05/13 02:50:28;;;;;;;;;;;;;;;21.96;45.71;98821.69;5322199;26;32136;-92
2021/05/13 02:52:56;;;;;;;;;;;;;;;22.01;45.87;98821.28;5304061;26;33010;-91
2021/05/13 02:55:24;;;;;;;;;;;;;;;22.24;45.21;98826.22;5304028;26;33436;-91
2021/05/13 02:57:53;;;;;;;;;;;;;;;22.62;44.45;98814.66;5304144;26;32842;-91
2021/05/13 03:00:28;;;;;;;;;;;;;;;22.07;45.38;98822.50;5322850;26;33242;-93
2021/05/13 03:02:56;;;;;;;;;;;;;;;22.28;45.07;98823.16;5308748;26;33555;-92
2021/05/13 03:05:28;;;;;;;;;;;;;;;21.46;47.16;98827.16;5346382;26;33536;-92
2021/05/13 03:07:59;;;;;;;;;;;;;;;21.52;47.05;98822.16;5306121;26;33250;-90
2021/05/13 03:13:02;;;;;;;;;;;;;;;22.02;45.69;98817.66;5329754;26;33056;-91
2021/05/13 03:15:31;;;;;;;;;;;;;;;22.15;45.18;98819.97;5313175;26;34756;-90
2021/05/13 03:17:59;;;;;;;;;;;;;;;21.72;46.50;98816.84;5324876;26;33949;-93
2021/05/13 03:20:36;;;;;;;;;;;;;;;22.05;45.60;98816.53;5306718;26;32239;-91
2021/05/13 03:23:07;;;;;;;;;;;;;;;22.44;44.41;98824.38;5305506;26;34231;-91
2021/05/13 03:25:38;;;;;;;;;;;;;;;21.40;46.71;98819.78;5304955;26;34471;-92
2021/05/13 03:28:09;;;;;;;;;;;;;;;21.85;45.78;98813.91;5305696;26;32845;-91
2021/05/13 03:30:38;;;;;;;;;;;;;;;22.41;44.32;98816.72;5305718;26;32937;-91
2021/05/13 03:33:07;;;;;;;;;;;;;;;22.07;45.30;98809.25;5323070;26;32843;-92
2021/05/13 03:35:35;;;;;;;;;;;;;;;21.93;45.71;98807.91;5304278;26;33341;-92
2021/05/13 03:38:03;;;;;;;;;;;;;;;21.25;47.40;98811.41;5322727;26;33994;-91
2021/05/13 03:40:31;;;;;;;;;;;;;;;21.46;46.21;98809.47;5303792;26;31963;-91
2021/05/13 03:42:59;;;;;;;;;;;;;;;21.59;46.08;98811.84;5304279;26;32884;-91
2021/05/13 03:45:27;;;;;;;;;;;;;;;21.05;47.58;98815.81;5322605;26;34214;-91
2021/05/13 03:47:56;;;;;;;;;;;;;;;22.09;44.63;98816.06;5322290;26;33792;-91
2021/05/13 03:50:24;;;;;;;;;;;;;;;22.16;44.74;98816.34;5304462;26;33350;-91
2021/05/13 03:52:52;;;;;;;;;;;;;;;21.90;45.47;98818.75;5321863;26;32950;-92
2021/05/13 03:55:20;;;;;;;;;;;;;;;21.23;47.27;98826.59;5304555;26;33353;-91
2021/05/13 03:57:48;;;;;;;;;;;;;;;21.71;45.96;98827.59;5303741;26;34140;-91
2021/05/13 04:00:18;;;;;;;;;;;;;;;21.41;45.84;98824.94;5304786;26;33195;-91
2021/05/13 04:02:47;;;;;;;;;;;;;;;21.40;46.24;98825.06;5305425;26;33609;-92
2021/05/13 04:05:14;;;;;;;;;;;;;;;21.89;45.32;98823.25;5304663;26;32933;-91
2021/05/13 04:07:44;;;;;;;;;;;;;;;22.01;44.96;98822.09;5322721;26;33092;-91
2021/05/13 04:10:13;;;;;;;;;;;;;;;22.36;43.74;98825.09;5305487;26;32566;-90
2021/05/13 04:12:41;;;;;;;;;;;;;;;22.16;44.46;98826.94;5322894;26;34343;-91
2021/05/13 04:15:09;;;;;;;;;;;;;;;22.18;44.39;98823.16;5304921;26;33906;-93
2021/05/13 04:17:38;;;;;;;;;;;;;;;22.24;44.27;98831.53;5341583;26;34935;-91
2021/05/13 04:20:06;;;;;;;;;;;;;;;22.39;43.97;98826.63;5322876;26;31969;-90
2021/05/13 04:22:34;;;;;;;;;;;;;;;22.32;43.76;98826.34;5304176;26;33429;-90
2021/05/13 04:25:03;;;;;;;;;;;;;;;21.44;45.72;98829.13;5321978;26;34542;-92
2021/05/13 04:27:31;;;;;;;;;;;;;;;21.87;44.92;98829.66;5304230;26;32936;-92
2021/05/13 04:29:59;;;;;;;;;;;;;;;21.16;46.90;98828.97;5304373;26;32207;-92
2021/05/13 04:32:27;;;;;;;;;;;;;;;21.59;45.95;98835.72;5305355;26;34024;-91
2021/05/13 04:34:55;;;;;;;;;;;;;;;21.34;46.38;98829.13;5323766;26;34067;-92
2021/05/13 04:37:23;;;;;;;;;;;;;;;22.01;44.82;98835.34;5304911;26;32876;-93
2021/05/13 04:39:51;;;;;;;;;;;;;;;21.30;46.59;98827.69;5305393;26;32227;-91
2021/05/13 04:42:19;;;;;;;;;;;;;;;22.09;44.31;98828.50;5305387;26;33057;-91
2021/05/13 04:44:47;;;;;;;;;;;;;;;22.19;44.35;98824.84;5323733;26;33353;-92
2021/05/13 04:49:49;;;;;;;;;;;;;;;22.30;44.45;98830.97;5324916;26;33779;-91
2021/05/13 04:52:17;;;;;;;;;;;;;;;22.24;44.33;98823.56;5306552;26;33611;-90
2021/05/13 04:54:51;;;;;;;;;;;;;;;22.22;44.04;98826.38;5307918;26;33041;-92
2021/05/13 04:57:19;;;;;;;;;;;;;;;22.47;44.17;98821.41;5323715;26;32571;-87
2021/05/13 04:59:47;;;;;;;;;;;;;;;22.55;43.85;98824.19;5324137;26;32465;-87
2021/05/13 05:02:20;;;;;;;;;;;;;;;22.64;43.60;98815.34;5324327;26;33282;-88
2021/05/13 05:04:48;;;;;;;;;;;;;;;22.63;43.59;98813.66;5323993;26;33491;-90
2021/05/13 05:07:15;;;;;;;;;;;;;;;22.39;44.45;98813.34;5324347;26;34020;-89
2021/05/13 05:09:43;;;;;;;;;;;;;;;23.00;43.33;98811.91;5327038;26;32142;-88
2021/05/13 05:12:13;;;;;;;;;;;;;;;22.98;43.67;98808.59;5327530;26;32880;-89
2021/05/13 05:14:41;;;;;;;;;;;;;;;23.11;43.20;98819.69;5309948;26;34538;-87
2021/05/13 05:17:08;;;;;;;;;;;;;;;23.21;42.90;98808.19;5309842;26;32650;-88
2021/05/13 05:19:36;;;;;;;;;;;;;;;22.79;43.83;98804.25;5327349;26;35122;-89
2021/05/13 05:22:06;;;;;;;;;;;;;;;22.87;43.69;98817.59;5308781;26;34249;-88
2021/05/13 05:24:34;;;;;;;;;;;;;;;22.62;44.08;98813.81;5310105;26;33144;-88
2021/05/13 05:27:01;;;;;;;;;;;;;;;22.79;43.24;98815.69;5331603;26;34176;-88
2021/05/13 05:29:29;;;;;;;;;;;;;;;22.38;44.17;98820.50;5345710;26;33089;-90
2021/05/13 05:31:58;;;;;;;;;;;;;;;22.67;43.35;98824.84;5306101;26;32721;-91
2021/05/13 05:34:26;;;;;;;;;;;;;;;22.45;44.23;98826.06;5304821;26;34437;-89
2021/05/13 05:36:54;;;;;;;;;;;;;;;21.99;45.03;98824.06;5341459;26;34017;-88
2021/05/13 05:39:23;;;;;;;;;;;;;;;22.10;45.33;98823.06;5341567;26;33826;-88
2021/05/13 05:41:53;;;;;;;;;;;;;;;22.35;44.44;98818.97;5304825;26;33890;-91
2021/05/13 05:44:21;;;;;;;;;;;;;;;22.18;44.94;98820.53;5322714;26;33296;-91
2021/05/13 05:46:50;;;;;;;;;;;;;;;22.08;44.63;98818.88;5322873;26;33988;-91
2021/05/13 05:49:19;;;;;;;;;;;;;;;22.28;44.33;98817.00;5322853;26;33209;-90
2021/05/13 05:51:46;;;;;;;;;;;;;;;21.69;45.38;98817.13;5323328;26;34043;-90
2021/05/13 05:54:14;;;;;;;;;;;;;;;22.30;45.19;98815.88;5304211;26;33056;-91
2021/05/13 05:56:43;;;;;;;;;;;;;;;22.90;43.58;98817.28;5286496;26;32774;-91
2021/05/13 05:59:11;;;;;;;;;;;;;;;22.64;44.21;98809.19;5304567;26;32381;-89
2021/05/13 06:01:38;;;;;;;;;;;;;;;22.49;44.91;98816.81;5304832;26;34113;-90
2021/05/13 06:04:08;;;;;;;;;;;;;;;22.77;43.96;98817.63;5325802;26;33248;-91
2021/05/13 06:06:37;;;;;;;;;;;;;;;22.56;43.49;98819.72;5336770;26;34437;-88
2021/05/13 06:09:05;;;;;;;;;;;;;;;21.85;46.60;98813.91;5312832;26;32622;-89
2021/05/13 06:11:33;;;;;;;;;;;;;;;22.11;45.37;98816.78;5304910;26;35875;-88
2021/05/13 06:14:01;;;;;;;;;;;;;;;22.47;44.21;98814.31;5322020;26;33224;-89
2021/05/13 06:16:29;;;;;;;;;;;;;;;22.83;43.75;98816.22;5304515;26;32881;-90
2021/05/13 06:18:58;;;;;;;;;;;;;;;22.61;44.20;98814.81;5304483;26;33795;-90
2021/05/13 06:21:26;;;;;;;;;;;;;;;23.10;43.85;98820.66;5322990;26;34987;-91
2021/05/13 06:23:55;;;;;;;;;;;;;;;22.58;45.06;98820.41;5305215;26;33486;-90
2021/05/13 06:26:31;;;;;;;;;;;;;;;21.88;45.70;98824.22;5304826;26;34286;-87
2021/05/13 06:29:03;;;;;;;;;;;;;;;21.99;45.37;98826.72;5340812;26;32673;-89
2021/05/13 06:31:35;;;;;;;;;;;;;;;21.64;46.02;98830.81;5286829;26;32682;-87
2021/05/13 06:34:04;;;;;;;;;;;;;;;22.16;45.68;98827.81;5322937;26;33817;-87
2021/05/13 06:36:32;;;;;;;;;;;;;;;22.72;44.23;98827.03;5286696;26;33256;-86
2021/05/13 06:39:16;;;;;;;;;;;;;;;22.75;44.50;98826.72;5309877;26;32495;-87
2021/05/13 06:41:44;;;;;;;;;;;;;;;22.43;44.60;98830.66;5322589;26;34897;-87
2021/05/13 06:44:12;;;;;;;;;;;;;;;22.02;45.77;98830.91;5304070;26;33505;-88
2021/05/13 06:46:41;;;;;;;;;;;;;;;21.81;45.96;98831.09;5322717;26;34154;-88
2021/05/13 06:49:09;;;;;;;;;;;;;;;21.32;47.34;98823.12;5304461;26;32331;-89
2021/05/13 06:51:39;;;;;;;;;;;;;;;20.52;49.39;98823.06;5322239;26;33999;-88
2021/05/13 06:54:06;;;;;;;;;;;;;;;20.43;50.29;98823.84;5304465;26;34065;-88
2021/05/13 06:56:34;;;;;;;;;;;;;;;21.62;47.48;98826.63;5322768;26;34696;-89
2021/05/13 06:59:02;;;;;;;;;;;;;;;21.72;47.64;98827.44;5304435;26;33108;-88
2021/05/13 07:01:29;;;;;;;;;;;;;;;21.39;48.21;98826.03;5322446;26;34708;-89
2021/05/13 07:03:58;;;;;;;;;;;;;;;21.11;48.45;98831.19;5305088;26;33549;-89
2021/05/13 07:06:28;;;;;;;;;;;;;;;20.68;49.52;98825.19;5305279;26;34019;-88
2021/05/13 07:08:56;;;;;;;;;;;;;;;21.75;47.31;98826.34;5304903;26;33388;-90
2021/05/13 07:11:24;;;;;;;;;;;;;;;20.90;50.03;98829.47;5322754;26;34086;-89
2021/05/13 07:13:52;;;;;;;;;;;;;;;21.95;47.31;98813.88;5307936;26;34375;-89
2021/05/13 07:16:19;;;;;;;;;;;;;;;21.42;47.84;98820.44;5329527;26;34285;-89
2021/05/13 07:18:48;;;;;;;;;;;;;;;20.92;49.73;98814.28;5312745;26;32344;-90
2021/05/13 07:21:17;;;;;;;;;;;;;;;20.92;49.55;98814.28;5347751;26;34621;-90
2021/05/13 07:23:45;;;;;;;;;;;;;;;21.51;48.81;98819.63;5311944;26;34241;-90
2021/05/13 07:26:13;;;;;;;;;;;;;;;21.38;48.85;98817.28;5312269;26;33094;-88
2021/05/13 07:28:41;;;;;;;;;;;;;;;21.82;47.97;98807.06;5311552;26;32223;-88
2021/05/13 07:31:09;;;;;;;;;;;;;;;21.15;49.43;98814.03;5312061;26;33425;-88
2021/05/13 07:33:38;;;;;;;;;;;;;;;20.10;52.28;98809.91;5311123;26;33035;-89
2021/05/13 07:36:07;;;;;;;;;;;;;;;21.37;49.18;98815.59;5310633;26;34000;-88
2021/05/13 07:38:35;;;;;;;;;;;;;;;21.42;49.49;98808.06;5326875;26;34009;-89
2021/05/13 07:41:06;;;;;;;;;;;;;;;21.47;48.72;98808.47;5306541;26;34002;-89
2021/05/13 07:43:34;;;;;;;;;;;;;;;21.43;48.70;98806.25;5306121;26;34970;-89
2021/05/13 07:46:03;;;;;;;;;;;;;;;21.71;48.30;98803.75;5343031;26;32895;-88
2021/05/13 07:48:31;;;;;;;;;;;;;;;21.82;48.41;98806.25;5325639;26;34492;-89
2021/05/13 07:50:59;;;;;;;;;;;;;;;21.75;49.00;98800.69;5326812;26;34140;-89
2021/05/13 07:53:27;;;;;;;;;;;;;;;21.36;49.96;98806.78;5288477;26;33043;-88
2021/05/13 07:55:55;;;;;;;;;;;;;;;21.66;49.63;98812.13;5308329;26;34086;-89
2021/05/13 07:58:22;;;;;;;;;;;;;;;21.16;49.13;98805.94;5310297;26;32256;-89
2021/05/13 08:00:52;;;;;;;;;;;;;;;20.66;50.94;98806.81;5310801;26;32893;-86
2021/05/13 08:03:21;;;;;;;;;;;;;;;21.43;49.00;98798.28;5329432;26;33173;-90
2021/05/13 08:05:49;;;;;;;;;;;;;;;22.04;48.10;98804.22;5306762;26;34212;-89
2021/05/13 08:08:16;;;;;;;;;;;;;;;21.48;49.21;98809.31;5324133;26;32399;-87
2021/05/13 08:10:45;;;;;;;;;;;;;;;21.33;50.10;98806.25;5307516;26;33659;-88
2021/05/13 08:13:15;;;;;;;;;;;;;;;21.72;49.02;98810.72;5322697;26;33192;-86
2021/05/13 08:15:43;;;;;;;;;;;;;;;21.27;49.21;98807.66;5322079;26;33159;-88
2021/05/13 08:18:12;;;;;;;;;;;;;;;20.91;51.20;98807.31;5342214;26;33200;-91
2021/05/13 08:20:40;;;;;;;;;;;;;;;20.95;50.84;98806.06;5307647;26;32925;-90
2021/05/13 08:23:08;;;;;;;;;;;;;;;21.17;49.77;98812.09;5345682;26;34995;-90
2021/05/13 08:25:37;;;;;;;;;;;;;;;21.02;50.96;98815.12;5345953;26;34450;-89
2021/05/13 08:28:04;;;;;;;;;;;;;;;20.50;52.67;98812.59;5327952;26;31652;-90
2021/05/13 08:30:32;;;;;;;;;;;;;;;21.05;50.74;98806.09;5306537;26;33300;-88
2021/05/13 08:33:00;;;;;;;;;;;;;;;21.68;49.33;98820.75;5323961;26;34716;-88
2021/05/13 08:35:28;;;;;;;;;;;;;;;21.38;49.44;98816.41;5323269;26;34430;-88
2021/05/13 08:37:55;;;;;;;;;;;;;;;21.72;47.82;98816.03;5323675;26;33219;-88
2021/05/13 08:40:23;;;;;;;;;;;;;;;21.02;50.11;98811.66;5308467;26;32810;-89
2021/05/13 08:42:51;;;;;;;;;;;;;;;21.88;48.24;98812.78;5343900;26;34427;-89
2021/05/13 08:45:19;;;;;;;;;;;;;;;21.27;49.69;98809.44;5308059;26;32855;-87
2021/05/13 08:47:48;;;;;;;;;;;;;;;22.18;46.72;98811.75;5326119;26;35546;-87
2021/05/13 08:50:17;;;;;;;;;;;;;;;21.34;49.08;98813.22;5324887;26;34435;-89
2021/05/13 08:52:44;;;;;;;;;;;;;;;21.74;47.26;98812.25;5308034;26;33835;-88
2021/05/13 08:55:16;;;;;;;;;;;;;;;21.63;46.90;98818.53;5332654;26;34589;-91
2021/05/13 08:57:44;;;;;;;;;;;;;;;21.33;47.83;98817.66;5327246;26;32960;-89
2021/05/13 09:00:15;;;;;;;;;;;;;;;21.54;47.13;98815.88;5309048;26;32759;-92
2021/05/13 09:02:50;;;;;;;;;;;;;;;21.07;47.92;98811.25;5324801;26;32956;-89
2021/05/13 09:05:18;;;;;;;;;;;;;;;21.22;48.89;98809.88;5306201;26;32457;-90
2021/05/13 09:07:47;;;;;;;;;;;;;;;21.47;48.27;98813.78;5309859;26;32901;-88
2021/05/13 09:10:16;;;;;;;;;;;;;;;21.82;47.46;98806.25;5309127;26;32725;-88
2021/05/13 09:12:48;;;;;;;;;;;;;;;21.88;47.02;98810.97;5327248;26;33202;-89
2021/05/13 09:15:21;;;;;;;;;;;;;;;21.73;48.01;98817.69;5327915;26;33796;-88
2021/05/13 09:17:58;;;;;;;;;;;;;;;21.81;47.01;98813.34;5328845;26;33341;-88
2021/05/13 09:20:28;;;;;;;;;;;;;;;22.18;46.94;98817.88;5329254;26;34077;-91
2021/05/13 09:23:11;;;;;;;;;;;;;;;21.52;48.74;98816.00;5329316;26;35257;-88
2021/05/13 09:25:39;;;;;;;;;;;;;;;21.69;47.27;98823.25;5311105;26;32607;-88
2021/05/13 09:28:07;;;;;;;;;;;;;;;22.12;46.19;98823.72;5345915;26;32924;-88
2021/05/13 09:30:35;;;;;;;;;;;;;;;22.34;45.71;98822.56;5307919;26;33001;-86
2021/05/13 09:33:04;;;;;;;;;;;;;;;22.41;45.69;98820.19;5326960;26;34050;-87
2021/05/13 09:35:32;;;;;;;;;;;;;;;22.61;44.60;98815.62;5308727;26;32903;-87
2021/05/13 09:38:01;;;;;;;;;;;;;;;22.04;45.72;98826.28;5305894;26;32250;-88
2021/05/13 09:40:39;;;;;;;;;;;;;;;22.47;45.18;98819.63;5326841;26;34935;-91
2021/05/13 09:43:11;;;;;;;;;;;;;;;22.52;45.03;98816.50;5330080;26;32947;-90
2021/05/13 09:45:40;;;;;;;;;;;;;;;22.35;45.53;98818.13;5345177;26;33951;-87
2021/05/13 09:48:07;;;;;;;;;;;;;;;22.48;45.54;98813.34;5326732;26;34128;-90
2021/05/13 09:50:35;;;;;;;;;;;;;;;22.47;45.71;98813.44;5326618;26;32647;-91
2021/05/13 09:53:06;;;;;;;;;;;;;;;23.15;44.60;98809.63;5326499;26;33884;-87
2021/05/13 09:55:35;;;;;;;;;;;;;;;23.38;43.32;98809.16;5307421;26;32815;-88
2021/05/13 09:58:05;;;;;;;;;;;;;;;22.81;43.76;98811.03;5307724;26;32964;-88
2021/05/13 10:00:56;;;;;;;;;;;;;;;23.58;42.63;98800.03;5324875;26;34104;-87
2021/05/13 10:03:25;;;;;;;;;;;;;;;23.22;42.61;98807.19;5342222;26;34512;-88
2021/05/13 10:05:53;;;;;;;;;;;;;;;23.18;43.07;98811.97;5323896;26;34075;-90
2021/05/13 10:08:22;;;;;;;;;;;;;;;24.01;41.82;98801.03;5307242;26;32215;-86
2021/05/13 10:10:51;;;;;;;;;;;;;;;24.28;40.81;98804.50;5308564;26;32978;-88
2021/05/13 10:13:19;;;;;;;;;;;;;;;23.44;43.01;98800.56;5307258;26;34676;-88
2021/05/13 10:15:48;;;;;;;;;;;;;;;24.54;41.05;98802.78;5307616;26;32810;-88
2021/05/13 10:18:15;;;;;;;;;;;;;;;24.62;40.26;98801.03;5307726;26;33553;-88
2021/05/13 10:20:43;;;;;;;;;;;;;;;24.27;40.56;98802.84;5344413;26;34455;-88
2021/05/13 10:23:12;;;;;;;;;;;;;;;23.65;42.06;98806.41;5325745;26;33161;-88
2021/05/13 10:25:41;;;;;;;;;;;;;;;24.16;40.56;98809.25;5325855;26;32920;-87
2021/05/13 10:28:09;;;;;;;;;;;;;;;24.22;41.27;98805.13;5326378;26;33127;-87
2021/05/13 10:30:37;;;;;;;;;;;;;;;23.47;43.21;98808.25;5325669;26;32914;-88
2021/05/13 10:33:05;;;;;;;;;;;;;;;23.50;43.01;98802.63;5307825;26;33873;-89
2021/05/13 10:35:33;;;;;;;;;;;;;;;24.10;41.80;98799.25;5325717;26;34164;-88
2021/05/13 10:38:03;;;;;;;;;;;;;;;24.03;42.44;98800.88;5307280;26;33422;-87
2021/05/13 10:43:11;;;;;;;;;;;;;;;23.48;43.30;98817.88;5326644;26;32992;-89
2021/05/13 10:45:40;;;;;;;;;;;;;;;23.15;43.74;98815.75;5326139;26;34005;-90
2021/05/13 10:48:20;;;;;;;;;;;;;;;23.31;42.99;98809.78;5345762;26;33240;-88
2021/05/13 10:50:53;;;;;;;;;;;;;;;23.06;43.30;98813.16;5325361;26;33183;-87
2021/05/13 10:53:34;;;;;;;;;;;;;;;23.54;41.72;98809.31;5343457;26;34048;-88
2021/05/13 10:56:10;;;;;;;;;;;;;;;23.48;42.64;98804.59;5325279;26;32697;-88
2021/05/13 10:58:58;;;;;;;;;;;;;;;23.24;42.01;98814.03;5343489;26;32844;-88
2021/05/13 11:01:40;;;;;;;;;;;;;;;23.19;42.50;98808.34;5325512;26;33911;-88
2021/05/13 11:04:20;;;;;;;;;;;;;;;23.37;42.89;98807.50;5325451;26;33090;-88
2021/05/13 11:06:49;;;;;;;;;;;;;;;23.60;42.96;98797.19;5343717;26;34010;-87
2021/05/13 11:09:46;;;;;;;;;;;;;;;23.99;42.44;98796.87;5325560;26;32762;-87
2021/05/13 11:12:15;;;;;;;;;;;;;;;23.94;42.77;98799.97;5292288;26;32963;-88
2021/05/13 11:15:14;;;;;;;;;;;;;;;23.95;42.51;98795.50;5325949;26;34136;-88
2021/05/13 11:20:34;;;;;;;;;;;;;;;24.24;42.83;98797.84;5344249;26;32181;-89
2021/05/13 11:23:05;;;;;;;;;;;;;;;24.27;42.10;98799.34;5344122;26;33872;-89
2021/05/13 11:25:49;;;;;;;;;;;;;;;24.59;41.19;98795.97;5325263;26;34069;-89
2021/05/13 11:28:20;;;;;;;;;;;;;;;24.60;41.11;98792.34;5323847;26;34414;-90
2021/05/13 11:31:14;;;;;;;;;;;;;;;24.20;41.24;98799.16;5323261;26;32345;-89
2021/05/13 11:33:42;;;;;;;;;;;;;;;24.62;40.92;98801.03;5322674;26;33027;-88
2021/05/13 11:36:11;;;;;;;;;;;;;;;24.72;40.85;98794.72;5341011;26;33573;-90
2021/05/13 11:38:40;;;;;;;;;;;;;;;24.62;41.21;98798.38;5311460;26;33354;-91
2021/05/13 11:41:08;;;;;;;;;;;;;;;24.59;42.06;98803.97;5287507;26;32053;-92
2021/05/13 11:43:39;;;;;;;;;;;;;;;24.50;42.15;98800.47;5310625;26;32955;-92
2021/05/13 11:46:07;;;;;;;;;;;;;;;24.61;41.89;98802.00;5312709;26;32866;-89
2021/05/13 11:48:40;;;;;;;;;;;;;;;24.79;42.27;98804.56;5311231;26;32242;-88
2021/05/13 11:51:12;;;;;;;;;;;;;;;25.03;41.38;98797.63;5312138;26;32973;-88
2021/05/13 11:53:41;;;;;;;;;;;;;;;24.76;39.70;98793.44;5316494;26;33761;-88
2021/05/13 11:56:09;;;;;;;;;;;;;;;23.97;41.50;98793.50;5319824;26;34233;-90
2021/05/13 11:58:47;;;;;;;;;;;;;;;23.92;41.91;98796.66;5330359;26;33230;-90
2021/05/13 12:01:18;;;;;;;;;;;;;;;23.89;42.28;98796.09;5325656;26;32034;-89
2021/05/13 12:03:47;;;;;;;;;;;;;;;24.32;40.75;98803.19;5323719;26;33039;-90
2021/05/13 12:06:14;;;;;;;;;;;;;;;23.96;41.83;98791.88;5322956;26;35100;-89
2021/05/13 12:08:42;;;;;;;;;;;;;;;24.48;40.94;98797.13;5304572;26;33035;-89
2021/05/13 12:11:18;;;;;;;;;;;;;;;24.83;40.62;98791.78;5322206;26;33536;-89
2021/05/13 12:13:48;;;;;;;;;;;;;;;24.88;40.75;98794.78;5340825;26;34527;-89
2021/05/13 12:16:16;;;;;;;;;;;;;;;24.16;41.55;98795.13;5322583;26;33075;-89
2021/05/13 12:18:45;;;;;;;;;;;;;;;23.51;43.02;98798.97;5322600;26;35069;-89
2021/05/13 12:21:14;;;;;;;;;;;;;;;24.51;41.58;98798.63;5322319;26;34328;-92
2021/05/13 12:23:43;;;;;;;;;;;;;;;23.92;42.88;98796.66;5303886;26;34076;-91
2021/05/13 12:26:11;;;;;;;;;;;;;;;23.96;42.92;98797.19;5304338;26;33038;-90
2021/05/13 12:28:41;;;;;;;;;;;;;;;24.00;43.49;98802.03;5304900;26;32927;-89
2021/05/13 12:31:09;;;;;;;;;;;;;;;23.55;44.81;98799.47;5304350;26;33313;-89
2021/05/13 12:33:39;;;;;;;;;;;;;;;23.84;43.20;98797.41;5340696;26;33947;-89
2021/05/13 12:36:10;;;;;;;;;;;;;;;24.19;43.29;98797.47;5322022;26;33033;-89
2021/05/13 12:38:42;;;;;;;;;;;;;;;24.61;42.19;98801.16;5304161;26;33831;-90
2021/05/13 12:41:15;;;;;;;;;;;;;;;24.65;42.23;98792.72;5303924;26;33635;-89
2021/05/13 12:43:43;;;;;;;;;;;;;;;25.10;40.59;98795.16;5304269;26;33850;-89
2021/05/13 12:46:25;;;;;;;;;;;;;;;24.24;42.62;98795.19;5305333;26;33858;-89
2021/05/13 12:48:53;;;;;;;;;;;;;;;24.94;40.85;98795.94;5303905;26;33873;-89
2021/05/13 12:51:22;;;;;;;;;;;;;;;24.18;42.32;98795.78;5322262;26;32698;-89
2021/05/13 12:53:56;;;;;;;;;;;;;;;24.78;42.07;98797.59;5323112;26;34784;-90
2021/05/13 12:56:27;;;;;;;;;;;;;;;24.75;41.86;98795.25;5322852;26;32874;-89
2021/05/13 12:59:08;;;;;;;;;;;;;;;25.08;41.29;98791.84;5341671;26;33828;-89
2021/05/13 13:01:37;;;;;;;;;;;;;;;24.65;40.96;98798.03;5305625;26;32945;-89
2021/05/13 13:04:06;;;;;;;;;;;;;;;24.43;41.79;98798.59;5304843;26;33273;-89
2021/05/13 13:06:50;;;;;;;;;;;;;;;23.38;42.56;98794.03;5323068;26;35000;-89
2021/05/13 13:09:32;;;;;;;;;;;;;;;24.00;42.41;98802.03;5305384;26;34231;-89
2021/05/13 13:12:03;;;;;;;;;;;;;;;24.58;41.56;98799.63;5324031;26;32964;-89
2021/05/13 13:17:21;;;;;;;;;;;;;;;23.43;43.82;98799.75;5341253;26;34865;-89
2021/05/13 13:20:16;;;;;;;;;;;;;;;24.32;42.10;98797.06;5322764;26;33013;-89
2021/05/13 13:22:44;;;;;;;;;;;;;;;23.63;43.00;98795.09;5319678;26;33155;-90